sensor_id;sensor_type;location;lat;lon;timestamp;temperature;humidity
21001;DHT22;10658;50.920;12.238;2023-04-24T00:01:31;12.10;99.90
21001;DHT22;10658;50.920;12.238;2023-04-24T00:05:31;12.10;99.90
21001;DHT22;10658;50.920;12.238;2023-04-24T00:09:33;12.00;99.90
21001;DHT22;10658;50.920;12.238;2023-04-24T00:13:34;12.00;99.90
21001;DHT22;10658;50.920;12.238;2023-04-24T00:17:35;12.00;99.90
21001;DHT22;10658;50.920;12.238;2023-04-24T00:21:36;11.90;99.90
21001;DHT22;10658;50.920;12.238;2023-04-24T00:25:38;11.90;99.90
21001;DHT22;10658;50.920;12.238;2023-04-24T00:29:39;11.80;99.90
21001;DHT22;10658;50.920;12.238;2023-04-24T00:33:40;11.80;99.90
21001;DHT22;10658;50.920;12.238;2023-04-24T00:37:41;11.70;99.90
21001;DHT22;10658;50.920;12.238;2023-04-24T00:41:42;11.70;99.90
21001;DHT22;10658;50.920;12.238;2023-04-24T00:45:43;11.60;99.90
21001;DHT22;10658;50.920;12.238;2023-04-24T00:49:44;11.60;99.90
21001;DHT22;10658;50.920;12.238;2023-04-24T00:53:45;11.70;99.90
21001;DHT22;10658;50.920;12.238;2023-04-24T00:57:47;11.70;99.90
21001;DHT22;10658;50.920;12.238;2023-04-24T01:01:49;11.70;99.90
21001;DHT22;10658;50.920;12.238;2023-04-24T01:05:50;11.70;99.90
21001;DHT22;10658;50.920;12.238;2023-04-24T01:09:51;11.60;99.90
21001;DHT22;10658;50.920;12.238;2023-04-24T01:13:52;11.60;99.90
21001;DHT22;10658;50.920;12.238;2023-04-24T01:17:53;11.50;99.90
21001;DHT22;10658;50.920;12.238;2023-04-24T01:21:58;11.40;99.90
21001;DHT22;10658;50.920;12.238;2023-04-24T01:25:59;11.40;99.90
21001;DHT22;10658;50.920;12.238;2023-04-24T01:30:00;11.30;99.90
21001;DHT22;10658;50.920;12.238;2023-04-24T01:34:04;11.20;99.90
21001;DHT22;10658;50.920;12.238;2023-04-24T01:38:05;11.20;99.90
21001;DHT22;10658;50.920;12.238;2023-04-24T01:42:07;11.10;99.90
21001;DHT22;10658;50.920;12.238;2023-04-24T01:46:08;11.10;99.90
21001;DHT22;10658;50.920;12.238;2023-04-24T01:50:10;11.00;99.90
21001;DHT22;10658;50.920;12.238;2023-04-24T01:54:13;11.00;99.90
21001;DHT22;10658;50.920;12.238;2023-04-24T01:58:14;11.00;99.90
21001;DHT22;10658;50.920;12.238;2023-04-24T02:02:15;11.00;99.90
21001;DHT22;10658;50.920;12.238;2023-04-24T02:06:16;11.00;99.90
21001;DHT22;10658;50.920;12.238;2023-04-24T02:10:17;11.00;99.90
21001;DHT22;10658;50.920;12.238;2023-04-24T02:14:18;11.00;99.90
21001;DHT22;10658;50.920;12.238;2023-04-24T02:18:19;11.00;99.90
21001;DHT22;10658;50.920;12.238;2023-04-24T02:22:20;11.00;99.90
21001;DHT22;10658;50.920;12.238;2023-04-24T02:26:21;11.00;99.90
21001;DHT22;10658;50.920;12.238;2023-04-24T02:30:22;11.00;99.90
21001;DHT22;10658;50.920;12.238;2023-04-24T02:34:22;10.90;99.90
21001;DHT22;10658;50.920;12.238;2023-04-24T02:38:23;10.90;99.90
21001;DHT22;10658;50.920;12.238;2023-04-24T02:42:24;10.80;99.90
21001;DHT22;10658;50.920;12.238;2023-04-24T02:46:25;10.80;99.90
21001;DHT22;10658;50.920;12.238;2023-04-24T02:50:26;10.70;99.90
21001;DHT22;10658;50.920;12.238;2023-04-24T02:54:27;10.70;99.90
21001;DHT22;10658;50.920;12.238;2023-04-24T02:58:27;10.60;99.90
21001;DHT22;10658;50.920;12.238;2023-04-24T03:02:28;10.60;99.90
21001;DHT22;10658;50.920;12.238;2023-04-24T03:06:29;10.60;99.90
21001;DHT22;10658;50.920;12.238;2023-04-24T03:10:31;10.70;99.90
21001;DHT22;10658;50.920;12.238;2023-04-24T03:14:33;10.70;99.90
21001;DHT22;10658;50.920;12.238;2023-04-24T03:18:33;10.70;99.90
21001;DHT22;10658;50.920;12.238;2023-04-24T03:22:34;10.70;99.90
21001;DHT22;10658;50.920;12.238;2023-04-24T03:26:38;10.70;99.90
21001;DHT22;10658;50.920;12.238;2023-04-24T03:31:04;10.60;99.90
21001;DHT22;10658;50.920;12.238;2023-04-24T03:35:09;10.60;99.90
21001;DHT22;10658;50.920;12.238;2023-04-24T03:39:10;10.60;99.90
21001;DHT22;10658;50.920;12.238;2023-04-24T03:43:16;10.60;99.90
21001;DHT22;10658;50.920;12.238;2023-04-24T03:47:18;10.60;99.90
21001;DHT22;10658;50.920;12.238;2023-04-24T03:51:21;10.60;99.90
21001;DHT22;10658;50.920;12.238;2023-04-24T03:55:25;10.50;99.90
21001;DHT22;10658;50.920;12.238;2023-04-24T03:59:27;10.40;99.90
21001;DHT22;10658;50.920;12.238;2023-04-24T04:03:48;10.40;99.90
21001;DHT22;10658;50.920;12.238;2023-04-24T04:07:54;10.40;99.90
21001;DHT22;10658;50.920;12.238;2023-04-24T04:11:55;10.50;99.90
21001;DHT22;10658;50.920;12.238;2023-04-24T04:15:56;10.50;99.90
21001;DHT22;10658;50.920;12.238;2023-04-24T04:19:57;10.40;99.90
21001;DHT22;10658;50.920;12.238;2023-04-24T04:23:58;10.50;99.90
21001;DHT22;10658;50.920;12.238;2023-04-24T04:28:08;10.50;99.90
21001;DHT22;10658;50.920;12.238;2023-04-24T04:32:09;10.50;99.90
21001;DHT22;10658;50.920;12.238;2023-04-24T04:36:10;10.50;99.90
21001;DHT22;10658;50.920;12.238;2023-04-24T04:40:16;10.60;99.90
21001;DHT22;10658;50.920;12.238;2023-04-24T04:44:24;10.60;99.90
21001;DHT22;10658;50.920;12.238;2023-04-24T04:48:27;10.70;99.90
21001;DHT22;10658;50.920;12.238;2023-04-24T04:52:30;10.70;99.90
21001;DHT22;10658;50.920;12.238;2023-04-24T04:56:40;10.70;99.90
21001;DHT22;10658;50.920;12.238;2023-04-24T05:00:41;10.70;99.90
21001;DHT22;10658;50.920;12.238;2023-04-24T05:04:51;10.70;99.90
21001;DHT22;10658;50.920;12.238;2023-04-24T05:08:52;10.80;99.90
21001;DHT22;10658;50.920;12.238;2023-04-24T05:13:06;10.80;99.90
21001;DHT22;10658;50.920;12.238;2023-04-24T05:17:08;10.80;99.90
21001;DHT22;10658;50.920;12.238;2023-04-24T05:21:09;10.90;99.90
21001;DHT22;10658;50.920;12.238;2023-04-24T05:25:13;11.00;99.90
21001;DHT22;10658;50.920;12.238;2023-04-24T05:29:19;11.00;99.90
21001;DHT22;10658;50.920;12.238;2023-04-24T05:33:21;11.10;99.90
21001;DHT22;10658;50.920;12.238;2023-04-24T05:37:23;11.20;99.90
21001;DHT22;10658;50.920;12.238;2023-04-24T05:41:24;11.20;99.90
21001;DHT22;10658;50.920;12.238;2023-04-24T05:45:25;11.20;99.90
21001;DHT22;10658;50.920;12.238;2023-04-24T05:49:27;11.30;99.90
21001;DHT22;10658;50.920;12.238;2023-04-24T05:53:29;11.30;99.90
21001;DHT22;10658;50.920;12.238;2023-04-24T05:57:30;11.30;99.90
21001;DHT22;10658;50.920;12.238;2023-04-24T06:01:36;11.30;99.90
21001;DHT22;10658;50.920;12.238;2023-04-24T06:05:46;11.30;99.90
21001;DHT22;10658;50.920;12.238;2023-04-24T06:09:48;11.30;99.90
21001;DHT22;10658;50.920;12.238;2023-04-24T06:13:49;11.30;99.90
21001;DHT22;10658;50.920;12.238;2023-04-24T06:18:09;11.30;99.90
21001;DHT22;10658;50.920;12.238;2023-04-24T06:22:12;11.40;99.90
21001;DHT22;10658;50.920;12.238;2023-04-24T06:26:13;11.50;99.90
21001;DHT22;10658;50.920;12.238;2023-04-24T06:30:13;11.50;99.90
21001;DHT22;10658;50.920;12.238;2023-04-24T06:34:14;11.70;99.90
21001;DHT22;10658;50.920;12.238;2023-04-24T06:38:15;11.80;99.90
21001;DHT22;10658;50.920;12.238;2023-04-24T06:42:16;11.90;99.90
21001;DHT22;10658;50.920;12.238;2023-04-24T06:46:18;11.90;99.90
21001;DHT22;10658;50.920;12.238;2023-04-24T06:50:19;12.00;99.90
21001;DHT22;10658;50.920;12.238;2023-04-24T06:54:20;12.10;99.90
21001;DHT22;10658;50.920;12.238;2023-04-24T06:58:21;12.40;99.90
21001;DHT22;10658;50.920;12.238;2023-04-24T07:02:22;12.70;99.90
21001;DHT22;10658;50.920;12.238;2023-04-24T07:06:23;12.80;99.90
21001;DHT22;10658;50.920;12.238;2023-04-24T07:10:24;12.90;99.90
21001;DHT22;10658;50.920;12.238;2023-04-24T07:14:27;13.10;99.90
21001;DHT22;10658;50.920;12.238;2023-04-24T07:18:28;13.10;99.90
21001;DHT22;10658;50.920;12.238;2023-04-24T07:22:29;12.90;99.90
21001;DHT22;10658;50.920;12.238;2023-04-24T07:26:30;12.90;99.90
21001;DHT22;10658;50.920;12.238;2023-04-24T07:30:31;13.20;99.90
21001;DHT22;10658;50.920;12.238;2023-04-24T07:34:33;13.40;99.90
21001;DHT22;10658;50.920;12.238;2023-04-24T07:38:34;13.70;99.90
21001;DHT22;10658;50.920;12.238;2023-04-24T07:42:35;13.60;99.90
21001;DHT22;10658;50.920;12.238;2023-04-24T07:46:37;13.70;99.90
21001;DHT22;10658;50.920;12.238;2023-04-24T07:50:37;14.00;99.90
21001;DHT22;10658;50.920;12.238;2023-04-24T07:54:38;13.90;99.90
21001;DHT22;10658;50.920;12.238;2023-04-24T07:58:39;13.80;99.90
21001;DHT22;10658;50.920;12.238;2023-04-24T08:02:40;14.00;99.90
21001;DHT22;10658;50.920;12.238;2023-04-24T08:06:41;14.30;99.90
21001;DHT22;10658;50.920;12.238;2023-04-24T08:10:42;14.40;99.90
21001;DHT22;10658;50.920;12.238;2023-04-24T08:14:42;14.60;99.90
21001;DHT22;10658;50.920;12.238;2023-04-24T08:18:43;14.50;99.90
21001;DHT22;10658;50.920;12.238;2023-04-24T08:22:44;14.50;99.90
21001;DHT22;10658;50.920;12.238;2023-04-24T08:26:47;14.20;99.90
21001;DHT22;10658;50.920;12.238;2023-04-24T08:30:50;13.90;99.90
21001;DHT22;10658;50.920;12.238;2023-04-24T08:34:58;13.90;99.90
21001;DHT22;10658;50.920;12.238;2023-04-24T08:38:59;14.10;99.90
21001;DHT22;10658;50.920;12.238;2023-04-24T08:43:00;14.10;99.90
21001;DHT22;10658;50.920;12.238;2023-04-24T08:47:04;14.10;99.90
21001;DHT22;10658;50.920;12.238;2023-04-24T08:51:08;13.80;99.90
21001;DHT22;10658;50.920;12.238;2023-04-24T08:55:09;13.60;99.90
21001;DHT22;10658;50.920;12.238;2023-04-24T08:59:10;13.60;99.90
21001;DHT22;10658;50.920;12.238;2023-04-24T09:03:16;13.90;99.90
21001;DHT22;10658;50.920;12.238;2023-04-24T09:07:18;13.90;99.90
21001;DHT22;10658;50.920;12.238;2023-04-24T09:11:20;13.80;99.90
21001;DHT22;10658;50.920;12.238;2023-04-24T09:15:21;13.80;99.90
21001;DHT22;10658;50.920;12.238;2023-04-24T09:19:22;13.60;99.90
21001;DHT22;10658;50.920;12.238;2023-04-24T09:23:22;13.70;99.90
21001;DHT22;10658;50.920;12.238;2023-04-24T09:27:28;14.40;99.90
21001;DHT22;10658;50.920;12.238;2023-04-24T09:31:30;14.80;99.90
21001;DHT22;10658;50.920;12.238;2023-04-24T09:35:32;15.00;99.90
21001;DHT22;10658;50.920;12.238;2023-04-24T09:39:33;14.90;99.90
21001;DHT22;10658;50.920;12.238;2023-04-24T09:43:34;14.70;99.90
21001;DHT22;10658;50.920;12.238;2023-04-24T09:47:37;14.70;99.90
21001;DHT22;10658;50.920;12.238;2023-04-24T09:51:38;14.40;99.90
21001;DHT22;10658;50.920;12.238;2023-04-24T09:55:42;14.50;99.90
21001;DHT22;10658;50.920;12.238;2023-04-24T09:59:46;14.50;99.90
21001;DHT22;10658;50.920;12.238;2023-04-24T10:03:46;14.70;99.90
21001;DHT22;10658;50.920;12.238;2023-04-24T10:07:47;14.90;99.90
21001;DHT22;10658;50.920;12.238;2023-04-24T10:11:50;14.90;99.90
21001;DHT22;10658;50.920;12.238;2023-04-24T10:15:51;14.50;99.90
21001;DHT22;10658;50.920;12.238;2023-04-24T10:19:52;14.60;99.90
21001;DHT22;10658;50.920;12.238;2023-04-24T10:23:53;14.50;99.90
21001;DHT22;10658;50.920;12.238;2023-04-24T10:27:55;14.50;99.90
21001;DHT22;10658;50.920;12.238;2023-04-24T10:32:00;14.60;99.90
21001;DHT22;10658;50.920;12.238;2023-04-24T10:36:00;14.80;99.90
21001;DHT22;10658;50.920;12.238;2023-04-24T10:40:02;14.60;99.90
21001;DHT22;10658;50.920;12.238;2023-04-24T10:44:13;14.60;99.90
21001;DHT22;10658;50.920;12.238;2023-04-24T10:48:15;14.80;99.90
21001;DHT22;10658;50.920;12.238;2023-04-24T10:52:16;15.10;99.90
21001;DHT22;10658;50.920;12.238;2023-04-24T10:56:17;15.20;99.90
21001;DHT22;10658;50.920;12.238;2023-04-24T11:00:20;15.50;99.90
21001;DHT22;10658;50.920;12.238;2023-04-24T11:04:32;15.80;99.90
21001;DHT22;10658;50.920;12.238;2023-04-24T11:08:43;15.60;99.90
21001;DHT22;10658;50.920;12.238;2023-04-24T11:12:44;16.00;99.90
21001;DHT22;10658;50.920;12.238;2023-04-24T11:16:52;15.50;99.90
21001;DHT22;10658;50.920;12.238;2023-04-24T11:20:54;15.30;99.90
21001;DHT22;10658;50.920;12.238;2023-04-24T11:24:55;15.00;99.90
21001;DHT22;10658;50.920;12.238;2023-04-24T11:29:09;14.90;99.90
21001;DHT22;10658;50.920;12.238;2023-04-24T11:33:10;14.80;99.90
21001;DHT22;10658;50.920;12.238;2023-04-24T11:37:10;15.00;99.90
21001;DHT22;10658;50.920;12.238;2023-04-24T11:41:11;15.40;99.90
21001;DHT22;10658;50.920;12.238;2023-04-24T11:45:15;15.80;99.90
21001;DHT22;10658;50.920;12.238;2023-04-24T11:49:16;15.50;99.90
21001;DHT22;10658;50.920;12.238;2023-04-24T11:53:19;15.00;99.90
21001;DHT22;10658;50.920;12.238;2023-04-24T11:57:23;15.20;99.90
21001;DHT22;10658;50.920;12.238;2023-04-24T12:01:24;15.10;99.90
21001;DHT22;10658;50.920;12.238;2023-04-24T12:05:26;14.80;99.90
21001;DHT22;10658;50.920;12.238;2023-04-24T12:09:27;14.80;99.90
21001;DHT22;10658;50.920;12.238;2023-04-24T12:13:28;14.70;99.90
21001;DHT22;10658;50.920;12.238;2023-04-24T12:17:31;15.10;99.90
21001;DHT22;10658;50.920;12.238;2023-04-24T12:21:32;15.10;99.90
21001;DHT22;10658;50.920;12.238;2023-04-24T12:25:33;15.00;99.90
21001;DHT22;10658;50.920;12.238;2023-04-24T12:29:34;15.00;99.90
21001;DHT22;10658;50.920;12.238;2023-04-24T12:33:35;15.30;99.90
21001;DHT22;10658;50.920;12.238;2023-04-24T12:37:36;15.60;99.90
21001;DHT22;10658;50.920;12.238;2023-04-24T12:41:37;15.30;99.90
21001;DHT22;10658;50.920;12.238;2023-04-24T12:45:38;15.40;99.90
21001;DHT22;10658;50.920;12.238;2023-04-24T12:49:39;15.60;99.90
21001;DHT22;10658;50.920;12.238;2023-04-24T12:53:39;15.90;99.90
21001;DHT22;10658;50.920;12.238;2023-04-24T12:57:40;16.20;99.90
21001;DHT22;10658;50.920;12.238;2023-04-24T13:01:41;16.30;99.90
21001;DHT22;10658;50.920;12.238;2023-04-24T13:05:43;15.80;99.90
21001;DHT22;10658;50.920;12.238;2023-04-24T13:09:44;15.60;99.90
21001;DHT22;10658;50.920;12.238;2023-04-24T13:13:45;15.80;99.90
21001;DHT22;10658;50.920;12.238;2023-04-24T13:17:46;15.30;99.90
21001;DHT22;10658;50.920;12.238;2023-04-24T13:21:47;15.30;99.90
21001;DHT22;10658;50.920;12.238;2023-04-24T13:25:47;15.40;99.90
21001;DHT22;10658;50.920;12.238;2023-04-24T13:29:48;15.80;99.90
21001;DHT22;10658;50.920;12.238;2023-04-24T13:33:49;16.10;99.90
21001;DHT22;10658;50.920;12.238;2023-04-24T13:37:50;15.70;99.90
21001;DHT22;10658;50.920;12.238;2023-04-24T13:41:50;15.40;99.90
21001;DHT22;10658;50.920;12.238;2023-04-24T13:45:51;15.60;99.90
21001;DHT22;10658;50.920;12.238;2023-04-24T13:49:52;15.90;99.90
21001;DHT22;10658;50.920;12.238;2023-04-24T13:53:55;15.50;99.90
21001;DHT22;10658;50.920;12.238;2023-04-24T13:57:55;15.30;99.90
21001;DHT22;10658;50.920;12.238;2023-04-24T14:01:56;15.10;99.90
21001;DHT22;10658;50.920;12.238;2023-04-24T14:05:57;14.90;99.90
21001;DHT22;10658;50.920;12.238;2023-04-24T14:09:58;14.60;99.90
21001;DHT22;10658;50.920;12.238;2023-04-24T14:13:59;14.50;99.90
21001;DHT22;10658;50.920;12.238;2023-04-24T14:18:00;14.50;99.90
21001;DHT22;10658;50.920;12.238;2023-04-24T14:22:01;14.60;99.90
21001;DHT22;10658;50.920;12.238;2023-04-24T14:26:01;15.00;99.90
21001;DHT22;10658;50.920;12.238;2023-04-24T14:30:03;15.00;99.90
21001;DHT22;10658;50.920;12.238;2023-04-24T14:34:04;14.80;99.90
21001;DHT22;10658;50.920;12.238;2023-04-24T14:38:05;14.40;99.90
21001;DHT22;10658;50.920;12.238;2023-04-24T14:42:06;13.90;99.90
21001;DHT22;10658;50.920;12.238;2023-04-24T14:46:07;13.60;99.90
21001;DHT22;10658;50.920;12.238;2023-04-24T14:50:08;13.60;99.90
21001;DHT22;10658;50.920;12.238;2023-04-24T14:54:09;14.60;99.90
21001;DHT22;10658;50.920;12.238;2023-04-24T14:58:10;14.50;99.90
21001;DHT22;10658;50.920;12.238;2023-04-24T15:02:11;14.20;99.90
21001;DHT22;10658;50.920;12.238;2023-04-24T15:06:12;13.80;99.90
21001;DHT22;10658;50.920;12.238;2023-04-24T15:10:13;14.10;99.90
21001;DHT22;10658;50.920;12.238;2023-04-24T15:14:14;14.20;99.90
21001;DHT22;10658;50.920;12.238;2023-04-24T15:18:15;15.10;99.90
21001;DHT22;10658;50.920;12.238;2023-04-24T15:22:15;15.20;99.90
21001;DHT22;10658;50.920;12.238;2023-04-24T15:26:18;15.40;99.90
21001;DHT22;10658;50.920;12.238;2023-04-24T15:30:19;15.30;99.90
21001;DHT22;10658;50.920;12.238;2023-04-24T15:34:20;15.80;99.90
21001;DHT22;10658;50.920;12.238;2023-04-24T15:38:24;15.50;99.90
21001;DHT22;10658;50.920;12.238;2023-04-24T15:42:25;14.90;99.90
21001;DHT22;10658;50.920;12.238;2023-04-24T15:46:26;15.00;99.90
21001;DHT22;10658;50.920;12.238;2023-04-24T15:50:26;14.20;99.90
21001;DHT22;10658;50.920;12.238;2023-04-24T15:54:27;13.90;99.90
21001;DHT22;10658;50.920;12.238;2023-04-24T15:58:28;13.80;99.90
21001;DHT22;10658;50.920;12.238;2023-04-24T16:02:29;13.50;99.90
21001;DHT22;10658;50.920;12.238;2023-04-24T16:06:30;13.20;99.90
21001;DHT22;10658;50.920;12.238;2023-04-24T16:10:31;13.00;99.90
21001;DHT22;10658;50.920;12.238;2023-04-24T16:14:32;12.90;99.90
21001;DHT22;10658;50.920;12.238;2023-04-24T16:18:33;12.70;99.90
21001;DHT22;10658;50.920;12.238;2023-04-24T16:22:34;12.60;99.90
21001;DHT22;10658;50.920;12.238;2023-04-24T16:26:35;12.60;99.90
21001;DHT22;10658;50.920;12.238;2023-04-24T16:30:36;12.40;99.90
21001;DHT22;10658;50.920;12.238;2023-04-24T16:34:39;12.50;99.90
21001;DHT22;10658;50.920;12.238;2023-04-24T16:38:40;12.50;99.90
21001;DHT22;10658;50.920;12.238;2023-04-24T16:42:44;12.50;99.90
21001;DHT22;10658;50.920;12.238;2023-04-24T16:46:44;12.60;99.90
21001;DHT22;10658;50.920;12.238;2023-04-24T16:50:45;12.60;99.90
21001;DHT22;10658;50.920;12.238;2023-04-24T16:54:57;12.50;99.90
21001;DHT22;10658;50.920;12.238;2023-04-24T16:59:02;12.30;99.90
21001;DHT22;10658;50.920;12.238;2023-04-24T17:03:03;12.10;99.90
21001;DHT22;10658;50.920;12.238;2023-04-24T17:07:04;12.10;99.90
21001;DHT22;10658;50.920;12.238;2023-04-24T17:11:05;12.00;99.90
21001;DHT22;10658;50.920;12.238;2023-04-24T17:15:06;12.00;99.90
21001;DHT22;10658;50.920;12.238;2023-04-24T17:19:07;11.90;99.90
21001;DHT22;10658;50.920;12.238;2023-04-24T17:23:08;11.90;99.90
21001;DHT22;10658;50.920;12.238;2023-04-24T17:27:11;12.00;99.90
21001;DHT22;10658;50.920;12.238;2023-04-24T17:31:13;12.00;99.90
21001;DHT22;10658;50.920;12.238;2023-04-24T17:35:14;12.00;99.90
21001;DHT22;10658;50.920;12.238;2023-04-24T17:39:15;12.00;99.90
21001;DHT22;10658;50.920;12.238;2023-04-24T17:43:16;11.90;99.90
21001;DHT22;10658;50.920;12.238;2023-04-24T17:47:17;11.70;99.90
21001;DHT22;10658;50.920;12.238;2023-04-24T17:51:20;11.60;99.90
21001;DHT22;10658;50.920;12.238;2023-04-24T17:55:24;11.40;99.90
21001;DHT22;10658;50.920;12.238;2023-04-24T17:59:25;11.30;99.90
21001;DHT22;10658;50.920;12.238;2023-04-24T18:03:26;11.20;99.90
21001;DHT22;10658;50.920;12.238;2023-04-24T18:07:26;11.20;99.90
21001;DHT22;10658;50.920;12.238;2023-04-24T18:11:27;11.20;99.90
21001;DHT22;10658;50.920;12.238;2023-04-24T18:15:28;11.20;99.90
21001;DHT22;10658;50.920;12.238;2023-04-24T18:19:30;11.10;99.90
21001;DHT22;10658;50.920;12.238;2023-04-24T18:23:31;11.10;99.90
21001;DHT22;10658;50.920;12.238;2023-04-24T18:27:32;11.00;99.90
21001;DHT22;10658;50.920;12.238;2023-04-24T18:31:33;10.80;99.90
21001;DHT22;10658;50.920;12.238;2023-04-24T18:35:33;10.70;99.90
21001;DHT22;10658;50.920;12.238;2023-04-24T18:39:34;10.60;99.90
21001;DHT22;10658;50.920;12.238;2023-04-24T18:43:35;10.50;99.90
21001;DHT22;10658;50.920;12.238;2023-04-24T18:47:36;10.40;99.90
21001;DHT22;10658;50.920;12.238;2023-04-24T18:51:37;10.40;99.90
21001;DHT22;10658;50.920;12.238;2023-04-24T18:55:38;10.30;99.90
21001;DHT22;10658;50.920;12.238;2023-04-24T18:59:38;10.30;99.90
21001;DHT22;10658;50.920;12.238;2023-04-24T19:03:39;10.10;99.90
21001;DHT22;10658;50.920;12.238;2023-04-24T19:07:40;10.10;99.90
21001;DHT22;10658;50.920;12.238;2023-04-24T19:11:41;10.10;99.90
21001;DHT22;10658;50.920;12.238;2023-04-24T19:15:43;10.00;99.90
21001;DHT22;10658;50.920;12.238;2023-04-24T19:19:43;10.00;99.90
21001;DHT22;10658;50.920;12.238;2023-04-24T19:23:44;9.90;99.90
21001;DHT22;10658;50.920;12.238;2023-04-24T19:27:45;9.90;99.90
21001;DHT22;10658;50.920;12.238;2023-04-24T19:31:46;9.90;99.90
21001;DHT22;10658;50.920;12.238;2023-04-24T19:35:47;9.80;99.90
21001;DHT22;10658;50.920;12.238;2023-04-24T19:39:48;9.70;99.90
21001;DHT22;10658;50.920;12.238;2023-04-24T19:43:48;9.70;99.90
21001;DHT22;10658;50.920;12.238;2023-04-24T19:47:50;9.60;99.90
21001;DHT22;10658;50.920;12.238;2023-04-24T19:51:51;9.50;99.90
21001;DHT22;10658;50.920;12.238;2023-04-24T19:55:51;9.40;99.90
21001;DHT22;10658;50.920;12.238;2023-04-24T19:59:52;9.30;99.90
21001;DHT22;10658;50.920;12.238;2023-04-24T20:03:53;9.20;99.90
21001;DHT22;10658;50.920;12.238;2023-04-24T20:07:53;9.10;99.90
21001;DHT22;10658;50.920;12.238;2023-04-24T20:11:54;9.10;99.90
21001;DHT22;10658;50.920;12.238;2023-04-24T20:15:56;9.20;99.90
21001;DHT22;10658;50.920;12.238;2023-04-24T20:19:57;9.20;99.90
21001;DHT22;10658;50.920;12.238;2023-04-24T20:23:57;9.40;99.90
21001;DHT22;10658;50.920;12.238;2023-04-24T20:27:58;9.50;99.90
21001;DHT22;10658;50.920;12.238;2023-04-24T20:32:00;9.50;99.90
21001;DHT22;10658;50.920;12.238;2023-04-24T20:36:00;9.60;99.90
21001;DHT22;10658;50.920;12.238;2023-04-24T20:40:05;9.70;99.90
21001;DHT22;10658;50.920;12.238;2023-04-24T20:44:06;9.70;99.90
21001;DHT22;10658;50.920;12.238;2023-04-24T20:48:07;9.70;99.90
21001;DHT22;10658;50.920;12.238;2023-04-24T20:52:09;9.70;99.90
21001;DHT22;10658;50.920;12.238;2023-04-24T20:56:10;9.70;99.90
21001;DHT22;10658;50.920;12.238;2023-04-24T21:00:11;9.70;99.90
21001;DHT22;10658;50.920;12.238;2023-04-24T21:04:13;9.50;99.90
21001;DHT22;10658;50.920;12.238;2023-04-24T21:08:13;9.30;99.90
21001;DHT22;10658;50.920;12.238;2023-04-24T21:12:14;9.10;99.90
21001;DHT22;10658;50.920;12.238;2023-04-24T21:16:15;8.90;99.90
21001;DHT22;10658;50.920;12.238;2023-04-24T21:20:16;8.80;99.90
21001;DHT22;10658;50.920;12.238;2023-04-24T21:24:17;8.70;99.90
21001;DHT22;10658;50.920;12.238;2023-04-24T21:28:17;8.60;99.90
21001;DHT22;10658;50.920;12.238;2023-04-24T21:32:18;8.50;99.90
21001;DHT22;10658;50.920;12.238;2023-04-24T21:36:19;8.40;99.90
21001;DHT22;10658;50.920;12.238;2023-04-24T21:40:20;8.30;99.90
21001;DHT22;10658;50.920;12.238;2023-04-24T21:44:20;8.10;99.90
21001;DHT22;10658;50.920;12.238;2023-04-24T21:48:21;8.00;99.90
21001;DHT22;10658;50.920;12.238;2023-04-24T21:52:22;8.00;99.90
21001;DHT22;10658;50.920;12.238;2023-04-24T21:56:23;7.80;99.90
21001;DHT22;10658;50.920;12.238;2023-04-24T22:00:23;7.70;99.90
21001;DHT22;10658;50.920;12.238;2023-04-24T22:04:25;7.60;99.90
21001;DHT22;10658;50.920;12.238;2023-04-24T22:08:26;7.70;99.90
21001;DHT22;10658;50.920;12.238;2023-04-24T22:12:26;7.60;99.90
21001;DHT22;10658;50.920;12.238;2023-04-24T22:16:28;7.70;99.90
21001;DHT22;10658;50.920;12.238;2023-04-24T22:20:29;7.80;99.90
21001;DHT22;10658;50.920;12.238;2023-04-24T22:24:33;7.80;99.90
21001;DHT22;10658;50.920;12.238;2023-04-24T22:28:33;7.70;99.90
21001;DHT22;10658;50.920;12.238;2023-04-24T22:32:35;7.60;99.90
21001;DHT22;10658;50.920;12.238;2023-04-24T22:36:36;7.60;99.90
21001;DHT22;10658;50.920;12.238;2023-04-24T22:40:37;7.40;99.90
21001;DHT22;10658;50.920;12.238;2023-04-24T22:44:38;7.20;99.90
21001;DHT22;10658;50.920;12.238;2023-04-24T22:48:39;7.10;99.90
21001;DHT22;10658;50.920;12.238;2023-04-24T22:52:39;7.00;99.90
21001;DHT22;10658;50.920;12.238;2023-04-24T22:56:40;6.90;99.90
21001;DHT22;10658;50.920;12.238;2023-04-24T23:00:41;6.90;99.90
21001;DHT22;10658;50.920;12.238;2023-04-24T23:04:43;6.80;99.90
21001;DHT22;10658;50.920;12.238;2023-04-24T23:08:44;6.70;99.90
21001;DHT22;10658;50.920;12.238;2023-04-24T23:12:46;6.70;99.90
21001;DHT22;10658;50.920;12.238;2023-04-24T23:16:46;6.60;99.90
21001;DHT22;10658;50.920;12.238;2023-04-24T23:20:47;6.60;99.90
21001;DHT22;10658;50.920;12.238;2023-04-24T23:24:48;6.50;99.90
21001;DHT22;10658;50.920;12.238;2023-04-24T23:28:49;6.40;99.90
21001;DHT22;10658;50.920;12.238;2023-04-24T23:32:50;6.30;99.90
21001;DHT22;10658;50.920;12.238;2023-04-24T23:36:50;6.30;99.90
21001;DHT22;10658;50.920;12.238;2023-04-24T23:40:54;6.40;99.90
21001;DHT22;10658;50.920;12.238;2023-04-24T23:44:55;6.50;99.90
21001;DHT22;10658;50.920;12.238;2023-04-24T23:48:55;6.50;99.90
21001;DHT22;10658;50.920;12.238;2023-04-24T23:52:56;6.60;99.90
21001;DHT22;10658;50.920;12.238;2023-04-24T23:56:57;6.80;99.90
